createdAt,value
2018-04-19T00:02:13.621Z,53.10
2018-04-19T00:04:40.544Z,53.00
2018-04-19T00:07:06.673Z,52.90
2018-04-19T00:09:32.829Z,52.90
2018-04-19T00:11:58.978Z,53.30
2018-04-19T00:14:25.126Z,52.70
2018-04-19T00:16:51.215Z,53.00
2018-04-19T00:19:17.375Z,53.30
2018-04-19T00:21:43.519Z,53.10
2018-04-19T00:24:09.641Z,53.10
2018-04-19T00:26:35.788Z,53.10
2018-04-19T00:29:01.971Z,53.20
2018-04-19T00:31:28.152Z,53.10
2018-04-19T00:33:54.481Z,53.20
2018-04-19T00:36:20.621Z,52.80
2018-04-19T00:38:46.755Z,53.20
2018-04-19T00:41:12.850Z,53.50
2018-04-19T00:43:38.965Z,53.80
2018-04-19T00:46:05.152Z,53.70
2018-04-19T00:48:31.277Z,53.70
2018-04-19T00:50:57.439Z,54.00
2018-04-19T00:53:23.613Z,53.90
2018-04-19T00:55:49.746Z,54.20
2018-04-19T00:58:15.947Z,54.30
2018-04-19T01:00:42.092Z,54.50
2018-04-19T01:03:08.206Z,54.20
2018-04-19T01:05:34.319Z,54.40
2018-04-19T01:08:00.456Z,54.50
2018-04-19T01:10:26.583Z,54.70
2018-04-19T01:12:52.743Z,54.70
2018-04-19T01:15:18.862Z,54.80
2018-04-19T01:17:44.995Z,54.70
2018-04-19T01:20:11.162Z,54.70
2018-04-19T01:22:37.307Z,54.90
2018-04-19T01:25:03.477Z,54.90
2018-04-19T01:27:29.648Z,54.90
2018-04-19T01:29:55.747Z,54.70
2018-04-19T01:32:21.894Z,54.90
2018-04-19T01:34:48.007Z,54.70
2018-04-19T01:37:14.150Z,54.90
2018-04-19T01:39:40.462Z,54.90
2018-04-19T01:42:06.562Z,55.00
2018-04-19T01:44:32.697Z,54.90
2018-04-19T01:46:59.593Z,55.00
2018-04-19T01:49:25.737Z,55.00
2018-04-19T01:51:51.843Z,55.20
2018-04-19T01:54:18.008Z,55.00
2018-04-19T01:56:44.114Z,55.10
2018-04-19T01:59:10.252Z,55.00
2018-04-19T02:01:36.640Z,54.80
2018-04-19T02:04:02.823Z,55.00
2018-04-19T02:06:29.690Z,54.90
2018-04-19T02:08:55.810Z,55.30
2018-04-19T02:11:21.942Z,55.10
2018-04-19T02:13:48.069Z,55.40
2018-04-19T02:16:14.193Z,55.20
2018-04-19T02:18:40.298Z,55.20
2018-04-19T02:21:06.522Z,55.20
2018-04-19T02:23:32.650Z,55.40
2018-04-19T02:25:59.544Z,55.50
2018-04-19T02:28:25.642Z,56.00
2018-04-19T02:30:51.827Z,55.70
2018-04-19T02:33:17.960Z,55.50
2018-04-19T02:35:44.285Z,55.40
2018-04-19T02:38:10.452Z,55.00
2018-04-19T02:40:36.588Z,55.50
2018-04-19T02:43:02.750Z,55.40
2018-04-19T02:45:28.891Z,55.50
2018-04-19T02:47:55.027Z,55.70
2018-04-19T02:50:21.127Z,55.70
2018-04-19T02:52:47.255Z,55.90
2018-04-19T02:55:13.399Z,55.70
2018-04-19T02:57:39.556Z,55.50
2018-04-19T03:00:05.758Z,55.70
2018-04-19T03:02:32.664Z,55.60
2018-04-19T03:04:58.811Z,55.60
2018-04-19T03:07:25.738Z,55.80
2018-04-19T03:09:51.860Z,55.70
2018-04-19T03:12:17.986Z,55.70
2018-04-19T03:14:44.091Z,55.70
2018-04-19T03:17:10.254Z,55.40
2018-04-19T03:19:36.403Z,56.00
2018-04-19T03:22:02.511Z,55.80
2018-04-19T03:24:28.634Z,55.30
2018-04-19T03:26:55.503Z,55.40
2018-04-19T03:29:21.635Z,55.40
2018-04-19T03:31:47.731Z,55.10
2018-04-19T03:34:13.885Z,55.50
2018-04-19T03:36:40.011Z,55.30
2018-04-19T03:39:06.943Z,55.10
2018-04-19T03:41:33.122Z,55.10
2018-04-19T03:43:59.231Z,55.30
2018-04-19T03:46:25.334Z,55.40
2018-04-19T03:48:51.530Z,55.50
2018-04-19T03:51:18.488Z,55.60
2018-04-19T03:53:44.627Z,55.60
2018-04-19T03:56:10.763Z,55.30
2018-04-19T03:58:36.920Z,55.70
2018-04-19T04:01:03.045Z,55.70
2018-04-19T04:03:29.180Z,55.60
2018-04-19T04:05:56.167Z,55.50
2018-04-19T04:08:22.465Z,55.50
2018-04-19T04:10:48.594Z,55.60
2018-04-19T04:13:14.687Z,55.70
2018-04-19T04:15:40.803Z,55.70
2018-04-19T04:18:19.174Z,55.90
2018-04-19T04:20:57.592Z,56.00
2018-04-19T04:23:48.406Z,55.80
2018-04-19T04:26:14.531Z,56.10
2018-04-19T04:28:40.634Z,56.10
2018-04-19T04:31:06.923Z,55.70
2018-04-19T04:33:32.996Z,56.10
2018-04-19T04:35:59.147Z,55.90
2018-04-19T04:38:25.251Z,55.70
2018-04-19T04:40:51.386Z,55.90
2018-04-19T04:43:17.511Z,55.90
2018-04-19T04:45:43.631Z,56.10
2018-04-19T04:48:09.758Z,56.00
2018-04-19T04:50:35.884Z,56.20
2018-04-19T04:53:02.025Z,56.20
2018-04-19T04:55:28.167Z,56.40
2018-04-19T04:57:54.345Z,56.50
2018-04-19T05:00:20.464Z,56.20
2018-04-19T05:02:46.602Z,56.10
2018-04-19T05:05:12.746Z,56.40
2018-04-19T05:07:38.902Z,56.30
2018-04-19T05:10:05.027Z,56.20
2018-04-19T05:12:31.205Z,56.40
2018-04-19T05:14:57.377Z,56.40
2018-04-19T05:17:23.518Z,56.20
2018-04-19T05:19:49.634Z,56.30
2018-04-19T05:22:16.548Z,56.20
2018-04-19T05:24:42.687Z,55.90
2018-04-19T05:27:08.835Z,56.30
2018-04-19T05:29:35.124Z,55.40
2018-04-19T05:32:01.287Z,55.30
2018-04-19T05:34:28.207Z,55.10
2018-04-19T05:36:54.370Z,55.10
2018-04-19T05:39:20.743Z,55.00
2018-04-19T05:41:46.919Z,55.00
2018-04-19T05:44:13.150Z,55.20
2018-04-19T05:46:39.987Z,55.00
2018-04-19T05:49:07.051Z,54.80
2018-04-19T05:51:33.925Z,54.70
2018-04-19T05:54:04.395Z,54.50
2018-04-19T05:56:31.362Z,54.50
2018-04-19T05:58:57.560Z,54.40
2018-04-19T06:01:24.322Z,54.10
2018-04-19T06:03:52.825Z,54.40
2018-04-19T06:06:19.559Z,54.30
2018-04-19T06:08:46.437Z,53.80
2018-04-19T06:11:13.384Z,53.90
2018-04-19T06:13:40.168Z,53.70
2018-04-19T06:16:06.696Z,53.80
2018-04-19T06:18:33.220Z,53.60
2018-04-19T06:20:59.543Z,53.70
2018-04-19T06:23:26.007Z,53.30
2018-04-19T06:25:52.690Z,52.80
2018-04-19T06:28:19.611Z,52.60
2018-04-19T06:30:46.076Z,52.30
2018-04-19T06:33:12.241Z,52.10
2018-04-19T06:35:38.395Z,52.00
2018-04-19T06:38:04.919Z,51.70
2018-04-19T06:40:32.687Z,51.50
2018-04-19T06:43:03.671Z,50.90
2018-04-19T06:45:29.816Z,50.50
2018-04-19T06:47:55.989Z,50.60
2018-04-19T06:50:22.159Z,50.40
2018-04-19T06:52:49.176Z,49.80
2018-04-19T06:55:16.376Z,49.80
2018-04-19T06:57:42.608Z,49.50
2018-04-19T07:00:08.873Z,49.70
2018-04-19T07:02:35.079Z,49.90
2018-04-19T07:05:02.230Z,49.30
2018-04-19T07:07:28.969Z,49.10
2018-04-19T07:09:55.212Z,49.20
2018-04-19T07:12:26.086Z,49.20
2018-04-19T07:14:52.882Z,49.40
2018-04-19T07:17:23.350Z,49.20
2018-04-19T07:22:22.059Z,48.30
2018-04-19T07:24:48.244Z,48.50
2018-04-19T07:27:15.256Z,48.10
2018-04-19T07:29:45.821Z,48.50
2018-04-19T07:32:12.756Z,48.80
2018-04-19T07:34:42.845Z,48.30
2018-04-19T07:37:09.326Z,47.90
2018-04-19T07:39:35.508Z,47.70
2018-04-19T07:42:01.687Z,47.60
2018-04-19T07:44:28.311Z,47.70
2018-04-19T07:46:59.664Z,48.20
2018-04-19T07:49:26.658Z,48.00
2018-04-19T07:51:53.011Z,48.10
2018-04-19T07:54:20.045Z,48.30
2018-04-19T07:56:46.267Z,47.80
2018-04-19T07:59:19.507Z,47.70
2018-04-19T08:01:46.627Z,48.00
2018-04-19T08:04:17.277Z,47.80
2018-04-19T08:06:43.838Z,47.40
2018-04-19T08:09:10.035Z,47.20
2018-04-19T08:11:36.235Z,46.80
2018-04-19T08:14:02.430Z,46.90
2018-04-19T08:16:29.388Z,46.30
2018-04-19T08:18:56.396Z,46.30
2018-04-19T08:21:22.700Z,44.90
2018-04-19T08:23:49.704Z,45.20
2018-04-19T08:26:15.942Z,45.30
2018-04-19T08:28:43.046Z,44.80
2018-04-19T08:31:13.422Z,44.40
2018-04-19T08:33:39.721Z,44.40
2018-04-19T08:36:07.305Z,43.60
2018-04-19T08:38:33.491Z,43.50
2018-04-19T08:41:00.784Z,43.20
2018-04-19T08:43:30.878Z,43.70
2018-04-19T08:45:57.856Z,42.30
2018-04-19T08:48:24.602Z,42.30
2018-04-19T08:50:50.809Z,41.70
2018-04-19T08:53:17.079Z,41.20
2018-04-19T08:55:43.927Z,40.80
2018-04-19T08:58:10.868Z,40.90
2018-04-19T09:00:37.874Z,40.60
2018-04-19T09:03:05.791Z,40.20
2018-04-19T09:05:32.649Z,40.20
2018-04-19T09:07:59.856Z,40.00
2018-04-19T09:10:26.087Z,39.90
2018-04-19T09:12:52.195Z,39.40
2018-04-19T09:15:20.113Z,38.80
2018-04-19T09:17:51.192Z,38.00
2018-04-19T09:20:18.779Z,37.90
2018-04-19T09:22:46.394Z,37.80
2018-04-19T09:25:17.988Z,37.30
2018-04-19T09:27:44.214Z,37.80
2018-04-19T09:30:10.463Z,36.80
2018-04-19T09:32:36.635Z,37.20
2018-04-19T09:35:03.211Z,37.50
2018-04-19T09:37:29.388Z,35.80
2018-04-19T09:39:56.294Z,37.30
2018-04-19T09:42:22.484Z,35.90
2018-04-19T09:44:49.312Z,36.30
2018-04-19T09:47:15.493Z,35.90
2018-04-19T09:49:41.682Z,35.60
2018-04-19T09:52:08.808Z,35.40
2018-04-19T09:54:34.988Z,33.80
2018-04-19T09:57:01.167Z,34.30
2018-04-19T09:59:31.348Z,34.70
2018-04-19T10:02:04.421Z,35.20
2018-04-19T10:04:34.106Z,33.00
2018-04-19T10:07:00.744Z,33.20
2018-04-19T10:09:27.055Z,33.20
2018-04-19T10:11:54.768Z,30.80
2018-04-19T10:14:21.356Z,31.30
2018-04-19T10:16:47.972Z,30.80
2018-04-19T10:19:14.240Z,29.90
2018-04-19T10:21:40.497Z,29.60
2018-04-19T10:24:08.090Z,30.70
2018-04-19T10:26:34.968Z,30.70
2018-04-19T10:29:02.044Z,30.20
2018-04-19T10:31:28.912Z,30.40
2018-04-19T10:33:55.216Z,29.00
2018-04-19T10:36:21.820Z,27.70
2018-04-19T10:38:52.371Z,29.20
2018-04-19T10:41:18.752Z,29.20
2018-04-19T10:43:45.027Z,27.50
2018-04-19T10:46:12.001Z,27.00
2018-04-19T10:48:38.894Z,27.30
2018-04-19T10:51:09.409Z,27.30
2018-04-19T10:53:40.648Z,27.40
2018-04-19T10:56:07.006Z,27.90
2018-04-19T10:58:33.155Z,28.30
2018-04-19T11:01:01.914Z,28.60
2018-04-19T11:06:05.560Z,29.30
2018-04-19T11:08:31.799Z,29.30
2018-04-19T11:10:57.974Z,29.60
2018-04-19T11:13:24.505Z,28.80
2018-04-19T11:15:51.397Z,28.10
2018-04-19T11:18:18.350Z,28.40
2018-04-19T11:20:44.623Z,28.40
2018-04-19T11:23:16.608Z,28.70
2018-04-19T11:25:42.751Z,28.70
2018-04-19T11:28:09.784Z,29.10
2018-04-19T11:30:36.593Z,29.00
2018-04-19T11:33:02.959Z,27.60
2018-04-19T11:35:29.901Z,28.20
2018-04-19T11:37:56.068Z,28.60
2018-04-19T11:40:22.194Z,28.70
2018-04-19T11:42:49.113Z,28.20
2018-04-19T11:45:16.005Z,28.40
2018-04-19T11:47:42.881Z,28.40
2018-04-19T11:50:11.406Z,28.70
2018-04-19T11:52:37.605Z,27.10
2018-04-19T11:55:04.539Z,28.20
2018-04-19T11:57:31.042Z,28.70
2018-04-19T11:59:57.287Z,27.40
2018-04-19T12:02:23.484Z,27.00
2018-04-19T12:04:49.705Z,27.00
2018-04-19T12:07:15.924Z,26.70
2018-04-19T12:09:42.095Z,27.10
2018-04-19T12:12:13.061Z,26.10
2018-04-19T12:14:43.663Z,25.80
2018-04-19T12:17:10.737Z,25.60
2018-04-19T12:19:37.132Z,26.10
2018-04-19T12:22:03.382Z,26.20
2018-04-19T12:24:30.898Z,25.40
2018-04-19T12:26:58.627Z,25.90
2018-04-19T12:29:25.135Z,25.90
2018-04-19T12:31:55.402Z,25.90
2018-04-19T12:34:25.869Z,26.90
2018-04-19T12:36:52.559Z,26.20
2018-04-19T12:39:19.497Z,26.10
2018-04-19T12:41:45.699Z,25.90
2018-04-19T12:44:11.898Z,26.70
2018-04-19T12:46:47.003Z,25.30
2018-04-19T12:49:13.283Z,25.60
2018-04-19T12:51:39.459Z,25.60
2018-04-19T12:54:06.676Z,25.40
2018-04-19T12:56:32.801Z,25.40
2018-04-19T12:59:00.650Z,25.50
2018-04-19T13:01:26.814Z,25.50
2018-04-19T13:03:53.032Z,26.10
2018-04-19T13:06:19.203Z,25.80
2018-04-19T13:08:45.412Z,25.80
2018-04-19T13:11:11.564Z,25.30
2018-04-19T13:13:42.227Z,25.70
2018-04-19T13:16:09.923Z,25.10
2018-04-19T13:18:36.054Z,25.10
2018-04-19T13:21:06.636Z,25.70
2018-04-19T13:23:34.713Z,25.60
2018-04-19T13:26:00.928Z,24.90
2018-04-19T13:28:29.021Z,25.50
2018-04-19T13:30:55.281Z,25.50
2018-04-19T13:33:21.403Z,25.50
2018-04-19T13:35:49.885Z,25.60
2018-04-19T13:38:16.271Z,24.80
2018-04-19T13:40:43.222Z,24.70
2018-04-19T13:43:14.380Z,24.70
2018-04-19T13:45:40.575Z,24.70
2018-04-19T13:48:07.457Z,24.80
2018-04-19T13:50:33.644Z,24.80
2018-04-19T13:53:00.744Z,24.70
2018-04-19T13:55:26.955Z,24.60
2018-04-19T13:57:53.148Z,23.50
2018-04-19T14:00:19.371Z,23.70
2018-04-19T14:02:45.579Z,23.50
2018-04-19T14:05:11.736Z,23.50
2018-04-19T14:07:37.913Z,23.40
2018-04-19T14:10:04.182Z,23.90
2018-04-19T14:12:30.410Z,23.90
2018-04-19T14:14:57.447Z,23.70
2018-04-19T14:17:28.241Z,25.10
2018-04-19T14:19:54.410Z,24.50
2018-04-19T14:22:20.584Z,24.40
2018-04-19T14:24:46.720Z,24.20
2018-04-19T14:27:17.604Z,24.00
2018-04-19T14:29:43.819Z,24.70
2018-04-19T14:32:16.742Z,24.30
2018-04-19T14:34:44.640Z,24.90
2018-04-19T14:37:10.850Z,24.80
2018-04-19T14:39:37.011Z,24.70
2018-04-19T14:42:04.158Z,24.00
2018-04-19T14:44:33.307Z,24.10
2018-04-19T14:46:59.561Z,23.00
2018-04-19T14:49:25.762Z,24.30
2018-04-19T14:51:56.744Z,24.10
2018-04-19T14:54:23.266Z,22.70
2018-04-19T14:56:50.207Z,23.30
2018-04-19T14:59:16.422Z,23.30
2018-04-19T15:01:43.467Z,23.00
2018-04-19T15:04:09.676Z,22.20
2018-04-19T15:06:37.325Z,22.40
2018-04-19T15:09:03.762Z,22.10
2018-04-19T15:11:30.511Z,22.50
2018-04-19T15:13:56.813Z,22.80
2018-04-19T15:16:22.993Z,23.20
2018-04-19T15:18:49.501Z,23.30
2018-04-19T15:21:15.709Z,23.10
2018-04-19T15:23:42.074Z,24.00
2018-04-19T15:26:09.169Z,24.00
2018-04-19T15:28:35.515Z,22.80
2018-04-19T15:31:02.038Z,23.10
2018-04-19T15:33:33.631Z,24.20
2018-04-19T15:36:00.881Z,24.20
2018-04-19T15:38:28.659Z,24.00
2018-04-19T15:40:55.700Z,24.40
2018-04-19T15:43:22.039Z,23.40
2018-04-19T15:45:50.166Z,23.20
2018-04-19T15:48:16.979Z,22.80
2018-04-19T15:50:44.100Z,22.30
2018-04-19T15:53:10.255Z,23.10
2018-04-19T15:55:37.587Z,23.40
2018-04-19T15:58:09.072Z,23.40
2018-04-19T16:00:35.772Z,24.20
2018-04-19T16:03:01.950Z,22.10
2018-04-19T16:05:28.175Z,22.30
2018-04-19T16:07:54.337Z,22.60
2018-04-19T16:10:27.183Z,22.60
2018-04-19T16:12:54.069Z,22.70
2018-04-19T16:15:20.270Z,22.70
2018-04-19T16:17:50.779Z,21.90
2018-04-19T16:20:16.948Z,22.90
2018-04-19T16:22:47.920Z,22.80
2018-04-19T16:25:14.139Z,23.20
2018-04-19T16:27:44.332Z,23.80
2018-04-19T16:30:10.492Z,23.10
2018-04-19T16:32:36.653Z,23.10
2018-04-19T16:35:02.862Z,23.70
2018-04-19T16:37:29.880Z,23.30
2018-04-19T16:39:56.944Z,23.10
2018-04-19T16:42:23.277Z,23.30
2018-04-19T16:44:50.313Z,23.30
2018-04-19T16:47:16.577Z,23.30
2018-04-19T16:49:43.057Z,23.40
2018-04-19T16:52:09.335Z,23.80
2018-04-19T16:54:35.507Z,23.80
2018-04-19T16:57:01.724Z,23.90
2018-04-19T16:59:29.895Z,24.30
2018-04-19T17:01:56.121Z,24.60
2018-04-19T17:04:22.267Z,23.50
2018-04-19T17:06:49.428Z,23.80
2018-04-19T17:09:16.393Z,24.10
2018-04-19T17:11:47.043Z,23.90
2018-04-19T17:14:13.387Z,23.90
2018-04-19T17:16:44.664Z,25.00
2018-04-19T17:19:11.108Z,25.90
2018-04-19T17:21:37.671Z,24.30
2018-04-19T17:24:07.964Z,24.90
2018-04-19T17:26:34.791Z,25.30
2018-04-19T17:29:01.874Z,25.00
2018-04-19T17:31:32.066Z,24.10
2018-04-19T17:33:58.271Z,24.30
2018-04-19T17:36:25.349Z,23.70
2018-04-19T17:38:52.296Z,23.40
2018-04-19T17:41:22.394Z,23.30
2018-04-19T17:43:48.602Z,24.30
2018-04-19T17:49:09.451Z,24.70
2018-04-19T17:51:35.611Z,25.50
2018-04-19T17:54:02.808Z,26.60
2018-04-19T17:56:29.385Z,26.50
2018-04-19T17:58:55.844Z,27.10
2018-04-19T18:01:22.239Z,27.50
2018-04-19T18:03:49.137Z,28.30
2018-04-19T18:06:16.131Z,28.30
2018-04-19T18:08:44.118Z,28.70
2018-04-19T18:11:11.835Z,28.60
2018-04-19T18:13:38.700Z,28.50
2018-04-19T18:19:08.769Z,30.00
2018-04-19T18:21:35.292Z,29.70
2018-04-19T18:24:02.104Z,29.50
2018-04-19T18:26:33.832Z,30.00
2018-04-19T18:29:00.694Z,30.00
2018-04-19T18:31:27.220Z,30.00
2018-04-19T18:33:53.432Z,29.90
2018-04-19T18:36:20.136Z,30.90
2018-04-19T18:38:52.525Z,30.80
2018-04-19T18:41:20.274Z,32.90
2018-04-19T18:43:48.617Z,34.10
2018-04-19T18:46:15.328Z,34.40
2018-04-19T18:48:42.320Z,35.30
2018-04-19T18:51:09.319Z,36.20
2018-04-19T18:53:35.543Z,35.50
2018-04-19T18:56:01.685Z,34.80
2018-04-19T18:58:27.942Z,35.80
2018-04-19T19:00:56.822Z,37.60
2018-04-19T19:03:24.809Z,37.60
2018-04-19T19:05:51.645Z,37.70
2018-04-19T19:08:17.894Z,37.80
2018-04-19T19:10:44.254Z,38.10
2018-04-19T19:13:10.418Z,38.00
2018-04-19T19:21:40.625Z,37.80
2018-04-19T19:24:08.149Z,38.60
2018-04-19T19:26:35.148Z,38.90
2018-04-19T19:29:01.359Z,38.90
2018-04-19T19:31:27.584Z,40.00
2018-04-19T19:33:53.779Z,41.20
2018-04-19T19:36:20.107Z,41.60
2018-04-19T19:38:50.703Z,42.30
2018-04-19T19:41:17.439Z,42.70
2018-04-19T19:43:44.173Z,43.20
2018-04-19T19:46:10.436Z,43.50
2018-04-19T19:48:37.648Z,43.50
2018-04-19T19:51:04.331Z,43.60
2018-04-19T19:53:30.579Z,43.80
2018-04-19T19:56:01.187Z,44.10
2018-04-19T19:58:28.230Z,44.80
2018-04-19T20:00:56.215Z,45.20
2018-04-19T20:03:22.642Z,45.20
2018-04-19T20:05:48.886Z,45.60
2018-04-19T20:08:15.109Z,45.60
2018-04-19T20:10:42.632Z,45.90
2018-04-19T20:13:09.566Z,46.40
2018-04-19T20:15:36.620Z,46.40
2018-04-19T20:18:02.917Z,46.50
2018-04-19T20:20:29.168Z,46.40
2018-04-19T20:23:00.045Z,46.20
2018-04-19T20:25:26.220Z,46.30
2018-04-19T20:27:52.376Z,46.00
2018-04-19T20:30:18.541Z,45.80
2018-04-19T20:32:44.718Z,46.00
2018-04-19T20:35:10.887Z,46.30
2018-04-19T20:37:37.048Z,46.50
2018-04-19T20:40:03.228Z,46.30
2018-04-19T20:42:29.405Z,46.50
2018-04-19T20:44:55.533Z,46.80
2018-04-19T20:47:21.739Z,46.80
2018-04-19T20:49:47.838Z,47.00
2018-04-19T20:52:13.992Z,47.00
2018-04-19T20:54:40.103Z,47.40
2018-04-19T20:57:06.215Z,47.20
2018-04-19T20:59:32.363Z,46.80
2018-04-19T21:01:58.541Z,47.50
2018-04-19T21:04:24.693Z,48.10
2018-04-19T21:06:50.917Z,48.00
2018-04-19T21:09:17.055Z,47.90
2018-04-19T21:11:43.338Z,47.70
2018-04-19T21:14:09.507Z,47.90
2018-04-19T21:16:35.802Z,48.10
2018-04-19T21:19:02.822Z,47.30
2018-04-19T21:21:28.964Z,47.30
2018-04-19T21:23:55.164Z,47.20
2018-04-19T21:26:21.286Z,47.20
2018-04-19T21:28:47.418Z,47.40
2018-04-19T21:31:13.564Z,47.70
2018-04-19T21:33:39.722Z,48.10
2018-04-19T21:36:05.863Z,47.50
2018-04-19T21:38:32.016Z,48.40
2018-04-19T21:40:58.144Z,48.90
2018-04-19T21:43:24.253Z,49.20
2018-04-19T21:45:50.411Z,48.80
2018-04-19T21:48:16.560Z,49.20
2018-04-19T21:50:42.760Z,49.30
2018-04-19T21:53:09.024Z,49.30
2018-04-19T21:55:35.139Z,48.80
2018-04-19T21:58:01.324Z,48.50
2018-04-19T22:00:27.486Z,48.60
2018-04-19T22:02:53.653Z,48.80
2018-04-19T22:05:19.784Z,49.30
2018-04-19T22:07:45.940Z,49.10
2018-04-19T22:10:12.840Z,49.20
2018-04-19T22:12:38.971Z,49.10
2018-04-19T22:15:05.167Z,49.20
2018-04-19T22:17:31.314Z,49.30
2018-04-19T22:19:57.480Z,49.20
2018-04-19T22:22:23.678Z,49.30
2018-04-19T22:24:49.838Z,49.30
2018-04-19T22:27:16.727Z,49.20
2018-04-19T22:29:42.952Z,49.20
2018-04-19T22:32:09.067Z,49.50
2018-04-19T22:34:35.258Z,49.70
2018-04-19T22:37:01.409Z,49.40
2018-04-19T22:39:27.550Z,50.00
2018-04-19T22:41:53.676Z,49.90
2018-04-19T22:44:19.832Z,50.10
2018-04-19T22:46:45.959Z,50.10
2018-04-19T22:49:12.074Z,50.00
2018-04-19T22:51:38.234Z,50.10
2018-04-19T22:54:04.395Z,49.90
2018-04-19T22:56:30.535Z,50.00
2018-04-19T22:58:56.656Z,50.20
2018-04-19T23:01:22.771Z,50.10
2018-04-19T23:03:48.900Z,50.40
2018-04-19T23:06:15.063Z,50.40
2018-04-19T23:08:41.203Z,50.20
2018-04-19T23:11:07.351Z,50.30
2018-04-19T23:13:33.446Z,50.70
2018-04-19T23:15:59.603Z,50.60
2018-04-19T23:18:25.721Z,50.50
2018-04-19T23:20:51.828Z,50.70
2018-04-19T23:23:18.016Z,51.10
2018-04-19T23:25:44.134Z,51.00
2018-04-19T23:28:10.262Z,51.30
2018-04-19T23:30:36.379Z,51.40
2018-04-19T23:33:02.539Z,51.50
2018-04-19T23:35:28.639Z,51.30
2018-04-19T23:37:54.770Z,52.20
2018-04-19T23:40:20.963Z,51.60
2018-04-19T23:42:47.108Z,51.70
2018-04-19T23:45:13.207Z,52.10
2018-04-19T23:47:39.399Z,52.20
2018-04-19T23:50:05.521Z,52.30
2018-04-19T23:52:31.669Z,52.60
2018-04-19T23:54:57.770Z,52.20
2018-04-19T23:57:23.916Z,52.50
2018-04-19T23:59:50.027Z,53.00
